Monterey, Indiana
Current Conditions -  °F | °C
As of 3:55 AM on Sunday 21 Dec 2014 (Local Time) from KOXI Reporting Station
Overcast Overcast  
Wind Chill: 25°   Ceiling: 5000
Heat Index: 31°   Visibility: 5mi
Dew Point: 24°   Wind: 6mph
Humidity: 75%   Direction: 180°S
Pressure: 30.26"   Gusts: NA
Location:  41.16°N, 86.48°W
Report Text: KOXI 210955Z AUTO 18005KT 5SM OVC050 00/M04 A3026 RMK AO1 T10051044
Loading
Personal Weather Stations






























Interactive Weather Map New forecast layout! Learn more

10-Day Weather Forecast

Advertisements
Track Severe Weather on mobile